Time;durP1;ratioP1;P1;durP2;ratioP2;P2;SDS_P1;SDS_P2;PMS_P1;PMS_P2;Temp;Humidity;BMP_temperature;BMP_pressure;BME280_temperature;BME280_humidity;BME280_pressure;Samples;Min_cycle;Max_cycle;Signal;HPM_P1;HPM_P2
2024/02/08 00:01:45;;;;;;;2.97;0.88;;;9.00;99.90;;;;;;5031270;28;20389;-69
2024/02/08 00:04:10;;;;;;;2.97;1.50;;;9.00;99.90;;;;;;5042355;28;20040;-69
2024/02/08 00:06:36;;;;;;;2.65;1.48;;;9.00;99.90;;;;;;5030085;28;20037;-69
2024/02/08 00:09:02;;;;;;;1.02;0.52;;;9.00;99.90;;;;;;5046165;28;20048;-69
2024/02/08 00:11:38;;;;;;;2.15;1.40;;;9.00;99.90;;;;;;5033301;28;20472;-69
2024/02/08 00:14:04;;;;;;;2.33;1.10;;;9.00;99.90;;;;;;5048541;28;20117;-69
2024/02/08 00:16:30;;;;;;;1.30;0.90;;;9.00;99.90;;;;;;5034958;28;20021;-69
2024/02/08 00:18:56;;;;;;;1.92;1.20;;;9.00;99.90;;;;;;5046428;28;20040;-68
2024/02/08 00:21:22;;;;;;;2.67;1.63;;;9.00;99.90;;;;;;5031514;28;20029;-68
2024/02/08 00:23:47;;;;;;;2.08;0.93;;;9.00;99.90;;;;;;5044462;28;20052;-68
2024/02/08 00:26:17;;;;;;;1.90;1.45;;;9.00;99.90;;;;;;5033811;28;20032;-69
2024/02/08 00:28:43;;;;;;;2.80;1.52;;;9.00;99.90;;;;;;5033347;28;20067;-69
2024/02/08 00:31:08;;;;;;;1.20;1.10;;;9.00;99.90;;;;;;5037298;28;20053;-69
2024/02/08 00:33:34;;;;;;;2.05;0.93;;;9.00;99.90;;;;;;5033684;28;20033;-69
2024/02/08 00:36:01;;;;;;;2.60;1.17;;;9.00;99.90;;;;;;5033481;28;20481;-68
2024/02/08 00:38:29;;;;;;;2.00;1.05;;;9.00;99.90;;;;;;5032605;28;20079;-68
2024/02/08 00:40:55;;;;;;;1.25;0.98;;;9.00;99.90;;;;;;5049762;28;20468;-69
2024/02/08 00:43:21;;;;;;;1.48;1.10;;;9.00;99.90;;;;;;5033235;28;20540;-69
2024/02/08 00:45:47;;;;;;;2.30;1.25;;;9.00;99.90;;;;;;5033007;28;20033;-68
2024/02/08 00:48:13;;;;;;;2.45;0.98;;;9.10;99.90;;;;;;5033845;28;20378;-69
2024/02/08 00:50:39;;;;;;;1.35;0.95;;;9.00;99.90;;;;;;5049393;28;20033;-69
2024/02/08 00:53:05;;;;;;;2.00;1.00;;;9.10;99.90;;;;;;5048350;28;20087;-68
2024/02/08 00:55:34;;;;;;;1.70;0.85;;;9.10;99.90;;;;;;5034430;28;20108;-69
2024/02/08 00:58:02;;;;;;;1.90;1.13;;;9.10;99.90;;;;;;5033486;28;20029;-68
2024/02/08 01:00:37;;;;;;;2.08;1.05;;;9.10;99.90;;;;;;5052814;28;20064;-68
2024/02/08 01:03:07;;;;;;;2.47;1.50;;;9.10;99.90;;;;;;5044114;28;20103;-68
2024/02/08 01:05:33;;;;;;;1.52;0.93;;;9.10;99.90;;;;;;5032797;28;20045;-68
2024/02/08 01:08:00;;;;;;;1.75;0.90;;;9.10;99.90;;;;;;5028946;28;20483;-68
2024/02/08 01:10:27;;;;;;;7.00;1.15;;;9.10;99.90;;;;;;5013147;28;20029;-68
2024/02/08 01:12:54;;;;;;;1.30;0.82;;;9.10;99.90;;;;;;5044772;28;20033;-68
2024/02/08 01:15:21;;;;;;;1.50;0.47;;;9.10;99.90;;;;;;5025377;28;20040;-67
2024/02/08 01:17:51;;;;;;;1.40;0.88;;;9.10;99.90;;;;;;5032073;28;20037;-68
2024/02/08 01:20:27;;;;;;;1.13;0.73;;;9.10;99.90;;;;;;5048151;28;20474;-68
2024/02/08 01:22:54;;;;;;;2.70;0.70;;;9.10;99.90;;;;;;5023971;28;20462;-68
2024/02/08 01:25:20;;;;;;;1.02;0.77;;;9.20;99.90;;;;;;5034149;28;20086;-67
2024/02/08 01:27:46;;;;;;;4.50;1.70;;;9.10;99.90;;;;;;5032537;28;20488;-68
2024/02/08 01:30:15;;;;;;;2.30;1.08;;;9.20;99.90;;;;;;5035893;28;20395;-68
2024/02/08 01:32:41;;;;;;;3.08;1.20;;;9.20;99.90;;;;;;5031572;28;20386;-68
2024/02/08 01:35:21;;;;;;;1.33;0.85;;;9.20;99.90;;;;;;5031943;28;20029;-68
2024/02/08 01:37:48;;;;;;;0.75;0.63;;;9.20;99.90;;;;;;5047850;28;20581;-68
2024/02/08 01:40:16;;;;;;;2.38;0.85;;;9.20;99.90;;;;;;5033202;28;20029;-68
2024/02/08 01:42:43;;;;;;;1.48;1.10;;;9.20;99.90;;;;;;5032547;28;20029;-68
2024/02/08 01:45:33;;;;;;;0.45;0.40;;;9.20;99.90;;;;;;5047977;28;20037;-68
2024/02/08 01:48:05;;;;;;;1.98;1.00;;;9.20;99.90;;;;;;5047526;28;20120;-68
2024/02/08 01:50:52;;;;;;;11.43;1.73;;;9.20;99.90;;;;;;5021599;23;20050;-66
2024/02/08 01:53:27;;;;;;;1.92;0.95;;;9.20;99.90;;;;;;4983790;28;20603;-66
2024/02/08 01:55:57;;;;;;;2.30;1.05;;;9.20;99.90;;;;;;4967432;28;20130;-66
2024/02/08 01:58:24;;;;;;;2.35;0.85;;;9.30;99.90;;;;;;4973617;28;20088;-66
2024/02/08 02:00:52;;;;;;;6.13;2.13;;;9.20;99.90;;;;;;4983972;28;20039;-66
2024/02/08 02:03:23;;;;;;;1.80;0.82;;;9.20;99.90;;;;;;4971469;28;20121;-66
2024/02/08 02:05:49;;;;;;;1.73;0.93;;;9.30;99.90;;;;;;4978745;28;20035;-66
2024/02/08 02:08:23;;;;;;;1.33;0.70;;;9.20;99.90;;;;;;4970508;28;20286;-66
2024/02/08 02:11:11;;;;;;;2.03;0.88;;;9.30;99.90;;;;;;4968364;28;20039;-66
2024/02/08 02:13:39;;;;;;;2.13;1.20;;;9.30;99.90;;;;;;4970976;28;20035;-66
2024/02/08 02:16:06;;;;;;;1.30;0.60;;;9.30;99.90;;;;;;4971009;28;20054;-66
2024/02/08 02:18:31;;;;;;;1.40;0.70;;;9.30;99.90;;;;;;4973320;28;20538;-66
2024/02/08 02:20:57;;;;;;;5.40;1.42;;;9.30;99.90;;;;;;4972399;28;20043;-66
2024/02/08 02:23:24;;;;;;;1.38;0.60;;;9.30;99.90;;;;;;4972305;28;20066;-66
2024/02/08 02:25:54;;;;;;;1.63;0.90;;;9.30;99.90;;;;;;4966546;28;20050;-66
2024/02/08 02:28:21;;;;;;;1.45;0.80;;;9.30;99.90;;;;;;4972046;28;20068;-66
2024/02/08 02:30:48;;;;;;;2.45;1.33;;;9.30;99.90;;;;;;4970413;28;20043;-66
2024/02/08 02:33:16;;;;;;;1.05;0.57;;;9.30;99.90;;;;;;4970613;28;20026;-66
2024/02/08 02:35:48;;;;;;;2.22;1.02;;;9.30;99.90;;;;;;4970218;28;20031;-66
2024/02/08 02:38:18;;;;;;;0.90;0.85;;;9.30;99.90;;;;;;4987251;28;20034;-66
2024/02/08 02:40:47;;;;;;;1.77;0.40;;;9.30;99.90;;;;;;4986486;28;20090;-66
2024/02/08 02:43:14;;;;;;;1.70;0.63;;;9.40;99.90;;;;;;4971861;28;20675;-66
2024/02/08 02:45:43;;;;;;;1.42;0.93;;;9.30;99.90;;;;;;4972342;28;20042;-66
2024/02/08 02:48:09;;;;;;;0.32;0.32;;;9.30;99.90;;;;;;4987433;28;20084;-66
2024/02/08 02:50:40;;;;;;;1.10;0.98;;;9.40;99.90;;;;;;4966914;28;20114;-66
2024/02/08 02:53:07;;;;;;;;;;;9.40;99.90;;;;;;4949492;28;20035;-66
2024/02/08 02:55:34;;;;;;;0.77;0.60;;;9.40;99.90;;;;;;4971486;28;19953;-66
2024/02/08 02:58:00;;;;;;;0.73;0.60;;;9.40;99.90;;;;;;4971919;28;20027;-66
2024/02/08 03:00:33;;;;;;;0.85;0.60;;;9.50;99.90;;;;;;4970904;28;20461;-66
2024/02/08 03:03:12;;;;;;;2.25;0.65;;;9.40;99.90;;;;;;4984852;28;20030;-66
2024/02/08 03:05:46;;;;;;;0.82;0.57;;;9.40;99.90;;;;;;4985795;28;20061;-66
2024/02/08 03:08:12;;;;;;;0.22;0.17;;;9.40;99.90;;;;;;4970590;28;20491;-66
2024/02/08 03:10:38;;;;;;;2.10;1.27;;;9.40;99.90;;;;;;4972040;28;20043;-66
2024/02/08 03:13:04;;;;;;;0.88;0.70;;;9.50;99.90;;;;;;4971400;28;20031;-66
2024/02/08 03:15:30;;;;;;;0.57;0.40;;;9.50;99.90;;;;;;4971481;28;20037;-66
2024/02/08 03:17:56;;;;;;;0.85;0.55;;;9.50;99.90;;;;;;4969948;28;20031;-66
2024/02/08 03:20:29;;;;;;;0.38;0.38;;;9.40;99.90;;;;;;4972300;28;20050;-66
2024/02/08 03:22:59;;;;;;;1.25;0.90;;;9.50;99.90;;;;;;4969639;28;20038;-66
2024/02/08 03:25:25;;;;;;;1.30;0.73;;;9.50;99.90;;;;;;4971941;28;20035;-66
2024/02/08 03:27:53;;;;;;;1.35;0.60;;;9.50;99.90;;;;;;4986333;28;20097;-66
2024/02/08 03:30:30;;;;;;;1.48;0.70;;;9.60;99.90;;;;;;4970565;28;20042;-66
2024/02/08 03:33:02;;;;;;;1.17;0.90;;;9.50;99.90;;;;;;4970213;28;20035;-66
2024/02/08 03:35:28;;;;;;;0.80;0.80;;;9.50;99.90;;;;;;4972494;28;20039;-66
2024/02/08 03:38:00;;;;;;;1.08;0.70;;;9.60;99.90;;;;;;4986857;28;20038;-66
2024/02/08 03:40:32;;;;;;;1.75;0.82;;;9.50;99.90;;;;;;4970872;28;20038;-66
2024/02/08 03:42:58;;;;;;;2.03;0.60;;;9.50;99.90;;;;;;4950725;28;20046;-66
2024/02/08 03:45:27;;;;;;;1.20;0.55;;;9.50;99.90;;;;;;4966964;28;20029;-66
2024/02/08 03:47:58;;;;;;;0.70;0.60;;;9.50;99.90;;;;;;4970687;28;20522;-66
2024/02/08 03:50:34;;;;;;;1.40;0.80;;;9.50;99.90;;;;;;4970425;28;20117;-66
2024/02/08 03:53:01;;;;;;;2.17;0.80;;;9.60;99.90;;;;;;4950440;28;20126;-66
2024/02/08 03:55:26;;;;;;;1.33;0.73;;;9.50;99.90;;;;;;4967376;28;20027;-66
2024/02/08 03:58:00;;;;;;;2.55;0.60;;;9.60;99.90;;;;;;4969948;28;20483;-66
2024/02/08 04:00:29;;;;;;;0.93;0.60;;;9.60;99.90;;;;;;4972268;28;20062;-66
2024/02/08 04:03:06;;;;;;;2.28;0.50;;;9.50;99.90;;;;;;4950636;28;20035;-67
2024/02/08 04:08:32;;;;;;;0.13;0.13;;;9.60;99.90;;;;;;4971346;28;20121;-66
2024/02/08 04:54:43;;;;;;;1.02;0.60;;;9.70;99.90;;;;;;4970587;28;20547;-65
2024/02/08 04:57:12;;;;;;;1.08;0.40;;;9.60;99.90;;;;;;4971295;28;20031;-65
2024/02/08 04:59:44;;;;;;;2.15;1.08;;;9.70;99.90;;;;;;4972473;28;20112;-65
2024/02/08 05:02:11;;;;;;;2.00;0.57;;;9.70;99.90;;;;;;4974995;28;20031;-65
2024/02/08 05:04:37;;;;;;;1.33;0.75;;;9.70;99.90;;;;;;4973604;28;20038;-65
2024/02/08 05:07:04;;;;;;;1.55;0.75;;;9.70;99.90;;;;;;4974900;28;20042;-65
2024/02/08 05:09:31;;;;;;;1.75;0.65;;;9.70;99.90;;;;;;4989007;28;20395;-65
2024/02/08 05:11:59;;;;;;;0.65;0.55;;;9.70;99.90;;;;;;4974647;28;20033;-65
2024/02/08 05:14:26;;;;;;;1.77;0.73;;;9.70;99.90;;;;;;4973523;28;20034;-65
2024/02/08 05:16:54;;;;;;;0.30;0.30;;;9.60;99.90;;;;;;4965275;28;20022;-66
2024/02/08 05:19:23;;;;;;;1.55;0.63;;;9.70;99.90;;;;;;4972641;28;20491;-66
2024/02/08 05:21:54;;;;;;;0.93;0.52;;;9.70;99.90;;;;;;4972523;28;20049;-66
2024/02/08 05:24:26;;;;;;;0.32;0.32;;;9.70;99.90;;;;;;4966486;28;20046;-66
2024/02/08 05:26:53;;;;;;;0.30;0.30;;;9.60;99.90;;;;;;4971368;28;20054;-66
2024/02/08 05:29:19;;;;;;;2.17;0.65;;;9.70;99.90;;;;;;4972062;28;20039;-66
2024/02/08 05:31:49;;;;;;;0.65;0.40;;;9.70;99.90;;;;;;4935999;28;20503;-66
2024/02/08 05:34:21;;;;;;;3.75;0.63;;;9.70;99.90;;;;;;4955822;28;20076;-67
2024/02/08 05:36:49;;;;;;;1.02;0.73;;;9.70;99.90;;;;;;4986249;28;20030;-66
2024/02/08 05:39:28;;;;;;;1.25;0.55;;;9.60;99.90;;;;;;4971242;28;20373;-66
2024/02/08 05:41:57;;;;;;;2.60;1.02;;;9.60;99.90;;;;;;4979014;28;20045;-67
2024/02/08 05:44:29;;;;;;;1.42;0.82;;;9.60;99.90;;;;;;4972208;28;20149;-67
2024/02/08 05:46:56;;;;;;;1.08;0.63;;;9.60;99.90;;;;;;4972178;28;20125;-67
2024/02/08 05:49:25;;;;;;;0.85;0.60;;;9.60;99.90;;;;;;4974231;28;20031;-69
2024/02/08 05:51:56;;;;;;;1.00;0.40;;;9.70;99.90;;;;;;4971935;28;20034;-67
2024/02/08 05:54:31;;;;;;;;;;;9.60;99.90;;;;;;4974232;28;20058;-67
2024/02/08 05:57:03;;;;;;;0.98;0.20;;;9.60;99.90;;;;;;4966614;28;19948;-67
2024/02/08 05:59:36;;;;;;;1.48;0.85;;;9.70;99.90;;;;;;4973707;28;20080;-67
2024/02/08 06:02:13;;;;;;;1.25;0.73;;;9.70;99.90;;;;;;4969855;28;20435;-67
2024/02/08 06:04:49;;;;;;;0.90;0.45;;;9.70;99.90;;;;;;4972795;28;20027;-67
2024/02/08 06:07:17;;;;;;;0.88;0.50;;;9.60;99.90;;;;;;4987637;28;20035;-67
2024/02/08 06:14:59;;;;;;;0.77;0.40;;;9.70;99.90;;;;;;4967031;28;20545;-67
2024/02/08 06:17:32;;;;;;;0.40;0.40;;;9.70;99.90;;;;;;4973959;28;20070;-67
2024/02/08 06:20:00;;;;;;;0.68;0.52;;;9.70;99.90;;;;;;4967926;28;20070;-68
2024/02/08 06:22:29;;;;;;;2.92;0.40;;;9.70;99.90;;;;;;4972773;28;20035;-66
2024/02/08 06:25:08;;;;;;;0.57;0.43;;;9.60;99.90;;;;;;4986801;28;20472;-67
2024/02/08 06:27:41;;;;;;;1.55;0.50;;;9.60;99.90;;;;;;4972395;28;20030;-67
2024/02/08 06:30:09;;;;;;;0.93;0.52;;;9.60;99.90;;;;;;4968558;28;20031;-67
2024/02/08 06:32:44;;;;;;;1.25;0.55;;;9.60;99.90;;;;;;4970596;28;20031;-67
2024/02/08 06:35:28;;;;;;;2.58;0.68;;;9.70;99.90;;;;;;4972956;28;20085;-70
2024/02/08 06:38:00;;;;;;;0.65;0.45;;;9.70;99.90;;;;;;4950753;28;20039;-67
2024/02/08 06:40:50;;;;;;;0.25;0.25;;;9.70;99.90;;;;;;4973639;28;20042;-68
2024/02/08 06:48:48;;;;;;;0.32;0.30;;;9.70;99.90;;;;;;4971626;28;20407;-68
2024/02/08 07:38:01;;;;;;;0.65;0.55;;;9.80;99.90;;;;;;4965627;28;20077;-67
2024/02/08 07:40:27;;;;;;;2.03;0.52;;;9.80;99.90;;;;;;4972215;28;20519;-67
2024/02/08 07:45:45;;;;;;;0.55;0.50;;;9.80;99.90;;;;;;4984630;28;20081;-67
2024/02/08 07:51:03;;;;;;;0.47;0.28;;;9.80;99.90;;;;;;4963461;28;20029;-66
2024/02/08 07:53:44;;;;;;;0.47;0.30;;;9.90;99.90;;;;;;4971732;28;20023;-66
2024/02/08 07:59:03;;;;;;;1.00;0.60;;;9.90;99.90;;;;;;4973056;28;20037;-66
2024/02/08 08:01:38;;;;;;;0.70;0.32;;;9.80;99.90;;;;;;4970078;28;20041;-66
2024/02/08 08:04:08;;;;;;;0.90;0.50;;;9.90;99.90;;;;;;4956589;28;20490;-66
2024/02/08 08:06:52;;;;;;;0.60;0.40;;;9.90;99.90;;;;;;4964169;28;20390;-66
2024/02/08 08:09:21;;;;;;;0.30;0.30;;;9.90;99.90;;;;;;4972233;28;20483;-67
2024/02/08 08:11:48;;;;;;;0.30;0.30;;;9.90;99.90;;;;;;4971686;28;20446;-66
2024/02/08 08:17:08;;;;;;;0.47;0.32;;;10.00;99.90;;;;;;4971690;28;20031;-69
2024/02/08 08:19:44;;;;;;;1.02;0.50;;;10.00;99.90;;;;;;4972003;28;20472;-66
2024/02/08 08:22:19;;;;;;;0.35;0.30;;;10.10;99.90;;;;;;4967015;28;20094;-66
2024/02/08 08:25:30;;;;;;;0.75;0.38;;;10.10;99.90;;;;;;4971015;28;20033;-67
2024/02/08 08:27:53;;;;;;;1.17;0.57;;;10.20;99.90;;;;;;4974166;28;20541;-66
2024/02/08 08:30:28;;;;;;;0.22;0.20;;;10.20;99.90;;;;;;4984503;28;20483;-66
2024/02/08 08:41:00;;;;;;;0.57;0.45;;;10.30;99.90;;;;;;4975483;28;20165;-69
2024/02/08 08:43:27;;;;;;;0.68;0.50;;;10.20;99.90;;;;;;4973805;28;20037;-67
2024/02/08 08:45:59;;;;;;;0.20;0.20;;;10.20;99.90;;;;;;4967291;28;20036;-67
2024/02/08 08:48:30;;;;;;;0.40;0.32;;;10.20;99.90;;;;;;4975664;28;20034;-68
2024/02/08 08:51:10;;;;;;;0.73;0.40;;;10.20;99.90;;;;;;4975034;28;20078;-68
2024/02/08 08:53:43;;;;;;;0.70;0.40;;;10.30;99.90;;;;;;4973028;28;20054;-68
2024/02/08 08:56:13;;;;;;;1.15;0.38;;;10.30;99.90;;;;;;4970228;28;20030;-68
2024/02/08 08:58:40;;;;;;;0.73;0.37;;;10.30;99.90;;;;;;4974366;28;20037;-68
2024/02/08 09:01:18;;;;;;;0.63;0.40;;;10.40;99.90;;;;;;4975205;28;20384;-69
2024/02/08 09:03:44;;;;;;;0.65;0.40;;;10.30;99.90;;;;;;4973560;28;20515;-68
2024/02/08 09:06:13;;;;;;;1.30;0.52;;;10.30;99.90;;;;;;4975460;28;20466;-68
2024/02/08 09:08:43;;;;;;;2.25;0.38;;;10.40;99.90;;;;;;4975141;28;20383;-68
2024/02/08 09:11:15;;;;;;;1.10;0.43;;;10.40;99.90;;;;;;4973156;28;20019;-68
2024/02/08 09:13:51;;;;;;;0.30;0.30;;;10.40;99.90;;;;;;4974266;28;20034;-68
2024/02/08 09:21:32;;;;;;;0.63;0.57;;;10.40;99.90;;;;;;4975201;28;20435;-69
2024/02/08 09:24:07;;;;;;;0.10;0.10;;;10.40;99.90;;;;;;4965934;28;20078;-68
2024/02/08 09:29:25;;;;;;;0.32;0.32;;;10.50;99.90;;;;;;4987358;28;20035;-69
2024/02/08 09:31:58;;;;;;;0.55;0.30;;;10.50;99.90;;;;;;4974413;28;20022;-68
2024/02/08 09:34:37;;;;;;;0.30;0.20;;;10.50;99.90;;;;;;4972941;28;20086;-69
2024/02/08 09:37:10;;;;;;;0.10;0.10;;;10.50;99.90;;;;;;4974522;28;20027;-69
2024/02/08 09:39:58;;;;;;;0.40;0.35;;;10.50;99.90;;;;;;4974563;28;20086;-69
2024/02/08 09:42:27;;;;;;;0.28;0.28;;;10.50;99.90;;;;;;4968384;28;20129;-67
2024/02/08 09:45:41;;;;;;;0.75;0.40;;;10.50;99.90;;;;;;4973592;28;20027;-68
2024/02/08 09:48:25;;;;;;;0.55;0.47;;;10.50;99.90;;;;;;4966871;28;20114;-67
2024/02/08 09:50:59;;;;;;;0.93;0.22;;;10.50;99.90;;;;;;4953052;28;20035;-66
2024/02/08 09:53:27;;;;;;;4.25;0.90;;;10.60;99.90;;;;;;4972392;28;20026;-68
2024/02/08 09:56:02;;;;;;;0.95;0.68;;;10.50;99.90;;;;;;4988468;28;20031;-68
2024/02/08 09:58:38;;;;;;;4.22;0.50;;;10.50;99.90;;;;;;4974579;28;20372;-66
2024/02/08 10:01:28;;;;;;;1.02;0.47;;;10.50;99.90;;;;;;4972981;28;20513;-66
2024/02/08 10:04:14;;;;;;;0.93;0.52;;;10.50;99.90;;;;;;4973073;28;20038;-66
2024/02/08 10:12:20;;;;;;;0.47;0.40;;;10.60;99.90;;;;;;4973792;28;20057;-66
2024/02/08 10:14:54;;;;;;;1.67;0.68;;;10.60;99.90;;;;;;4973066;28;20018;-67
2024/02/08 10:17:28;;;;;;;0.80;0.20;;;10.60;99.90;;;;;;4973515;28;20105;-67
2024/02/08 10:22:54;;;;;;;0.82;0.43;;;10.50;99.90;;;;;;4970635;28;20054;-68
2024/02/08 10:28:09;;;;;;;0.35;0.20;;;10.50;99.90;;;;;;4961849;28;21727;-67
2024/02/08 10:30:36;;;;;;;0.20;0.20;;;10.40;99.90;;;;;;4964830;28;20065;-66
2024/02/08 10:33:14;;;;;;;1.27;0.45;;;10.40;99.90;;;;;;4955337;28;20061;-67
2024/02/08 10:35:43;;;;;;;0.45;0.22;;;10.40;99.90;;;;;;4973189;28;20574;-68
2024/02/08 10:38:47;;;;;;;0.52;0.13;;;10.40;99.90;;;;;;4951348;28;20035;-68
2024/02/08 10:41:18;;;;;;;0.65;0.25;;;10.40;99.90;;;;;;4973845;28;20058;-68
2024/02/08 10:43:57;;;;;;;;;;;10.40;99.90;;;;;;4964188;28;20043;-68
2024/02/08 10:46:31;;;;;;;0.50;0.30;;;10.40;99.90;;;;;;4969272;28;21990;-71
2024/02/08 10:49:10;;;;;;;0.52;0.40;;;10.40;99.90;;;;;;4980938;28;20124;-67
2024/02/08 10:51:37;;;;;;;0.38;0.30;;;10.40;99.90;;;;;;4970861;28;20031;-68
2024/02/08 10:54:08;;;;;;;0.80;0.57;;;10.50;99.90;;;;;;4969818;28;20474;-68
2024/02/08 10:56:41;;;;;;;;;;;10.50;99.90;;;;;;4971088;28;20115;-68
2024/02/08 10:59:14;;;;;;;0.32;0.32;;;10.50;99.90;;;;;;4970508;28;19914;-68
2024/02/08 11:04:18;;;;;;;0.68;0.40;;;10.60;99.90;;;;;;4978739;28;20026;-67
2024/02/08 11:07:06;;;;;;;0.25;0.25;;;10.60;99.90;;;;;;4974267;28;20030;-67
2024/02/08 11:09:38;;;;;;;1.95;0.52;;;10.60;99.90;;;;;;4973407;28;20035;-68
2024/02/08 11:12:23;;;;;;;0.28;0.20;;;10.60;99.90;;;;;;4968427;28;20034;-68
2024/02/08 11:15:13;;;;;;;0.10;0.10;;;10.60;99.90;;;;;;4972702;28;20400;-67
2024/02/08 11:17:49;;;;;;;1.85;0.25;;;10.60;99.90;;;;;;4977495;28;20033;-68
2024/02/08 11:20:42;;;;;;;1.10;0.35;;;10.60;99.90;;;;;;4969986;28;20039;-66
2024/02/08 11:23:31;;;;;;;0.35;0.20;;;10.70;99.90;;;;;;4979988;28;20502;-66
2024/02/08 11:26:06;;;;;;;0.47;0.40;;;10.70;99.90;;;;;;4970613;28;20120;-65
2024/02/08 11:28:54;;;;;;;0.20;0.15;;;10.70;99.90;;;;;;4986664;28;20391;-66
2024/02/08 11:31:18;;;;;;;0.65;0.43;;;10.70;99.90;;;;;;4971502;28;20058;-67
2024/02/08 11:33:44;;;;;;;0.45;0.45;;;10.70;99.90;;;;;;4971417;28;20019;-66
2024/02/08 11:36:13;;;;;;;0.40;0.38;;;10.70;99.90;;;;;;4971875;28;20092;-66
2024/02/08 11:38:58;;;;;;;0.98;0.45;;;10.70;99.90;;;;;;4970869;28;20027;-67
2024/02/08 11:41:26;;;;;;;1.38;0.45;;;10.80;99.90;;;;;;4955490;28;20079;-67
2024/02/08 11:44:05;;;;;;;1.58;1.33;;;10.80;99.90;;;;;;4967564;28;20045;-66
2024/02/08 11:46:45;;;;;;;0.73;0.40;;;10.80;99.90;;;;;;4964996;28;20035;-68
2024/02/08 11:49:14;;;;;;;0.17;0.10;;;10.80;99.90;;;;;;4962766;28;20059;-67
2024/02/08 11:51:42;;;;;;;0.47;0.32;;;10.80;99.90;;;;;;4965747;28;20034;-66
2024/02/08 11:54:09;;;;;;;4.00;0.32;;;10.80;99.90;;;;;;4963777;28;20023;-66
2024/02/08 11:56:35;;;;;;;5.00;0.95;;;10.80;99.90;;;;;;4968631;28;20050;-67
2024/02/08 11:59:05;;;;;;;3.30;0.47;;;10.90;99.90;;;;;;4971261;28;20491;-66
2024/02/08 12:01:32;;;;;;;1.45;0.30;;;10.90;99.90;;;;;;4970037;28;20023;-66
2024/02/08 12:03:59;;;;;;;0.20;0.20;;;10.90;99.90;;;;;;4969307;28;20046;-66
2024/02/08 12:06:26;;;;;;;0.93;0.60;;;10.90;99.90;;;;;;4972464;28;20030;-66
2024/02/08 12:09:03;;;;;;;1.67;0.30;;;10.90;99.90;;;;;;4974746;28;20033;-66
2024/02/08 12:11:31;;;;;;;0.17;0.17;;;10.90;99.90;;;;;;4956580;28;20027;-66
2024/02/08 12:14:10;;;;;;;0.15;0.13;;;10.90;99.90;;;;;;4972121;28;20037;-66
2024/02/08 12:16:46;;;;;;;0.38;0.22;;;10.90;99.90;;;;;;4975033;28;20050;-67
2024/02/08 12:19:19;;;;;;;0.70;0.30;;;10.90;99.90;;;;;;4975321;28;20027;-69
2024/02/08 12:22:03;;;;;;;0.13;0.10;;;11.00;99.90;;;;;;4989629;28;20023;-69
2024/02/08 12:24:34;;;;;;;0.60;0.60;;;11.00;99.90;;;;;;4974500;28;20019;-66
2024/02/08 12:27:13;;;;;;;0.30;0.30;;;11.00;99.90;;;;;;4990045;28;20022;-66
2024/02/08 12:29:44;;;;;;;0.22;0.22;;;11.00;99.90;;;;;;4990545;28;20037;-66
2024/02/08 12:32:16;;;;;;;0.85;0.30;;;11.00;99.90;;;;;;4973505;28;20150;-66
2024/02/08 12:34:47;;;;;;;1.20;0.30;;;11.00;99.90;;;;;;4974391;28;20034;-66
2024/02/08 12:37:15;;;;;;;;;;;11.00;99.90;;;;;;4990175;28;20031;-66
2024/02/08 12:39:46;;;;;;;0.57;0.28;;;11.10;99.90;;;;;;4975778;28;20299;-66
2024/02/08 12:42:15;;;;;;;1.10;0.57;;;11.10;99.90;;;;;;4972927;28;20034;-66
2024/02/08 12:44:48;;;;;;;3.30;1.27;;;11.10;99.90;;;;;;4974770;28;20031;-65
2024/02/08 12:47:17;;;;;;;3.75;0.68;;;11.10;99.90;;;;;;4973253;28;20038;-65
2024/02/08 12:49:46;;;;;;;0.17;0.17;;;11.10;99.90;;;;;;4973882;28;20077;-65
2024/02/08 12:52:15;;;;;;;0.35;0.25;;;11.20;99.90;;;;;;4973749;28;20038;-65
2024/02/08 12:54:42;;;;;;;0.50;0.40;;;11.20;99.90;;;;;;4956021;28;20097;-65
2024/02/08 12:57:10;;;;;;;3.22;1.13;;;11.20;99.90;;;;;;4973124;28;20031;-66
2024/02/08 12:59:42;;;;;;;0.57;0.30;;;11.20;99.90;;;;;;4975296;28;20022;-65
2024/02/08 13:02:17;;;;;;;0.82;0.40;;;11.30;99.90;;;;;;4974870;28;20450;-65
2024/02/08 13:04:44;;;;;;;1.50;0.40;;;11.30;99.90;;;;;;4973551;28;20051;-65
2024/02/08 13:07:18;;;;;;;1.10;0.65;;;11.40;99.90;;;;;;4973091;28;20050;-65
2024/02/08 13:09:45;;;;;;;2.15;0.75;;;11.40;99.90;;;;;;4975164;28;20039;-65
2024/02/08 13:12:20;;;;;;;2.88;0.85;;;11.40;99.90;;;;;;4989823;28;20114;-65
2024/02/08 13:14:49;;;;;;;1.85;0.65;;;11.50;99.90;;;;;;4972980;28;20023;-65
2024/02/08 13:17:25;;;;;;;5.60;0.80;;;11.50;99.90;;;;;;4973654;28;20026;-66
2024/02/08 13:19:55;;;;;;;4.78;0.73;;;11.60;99.90;;;;;;4975520;28;20038;-66
2024/02/08 13:22:25;;;;;;;1.35;0.85;;;11.60;99.90;;;;;;4972789;28;20040;-66
2024/02/08 13:24:52;;;;;;;6.97;1.27;;;11.60;99.90;;;;;;4974563;28;20030;-66
2024/02/08 13:27:31;;;;;;;1.33;0.77;;;11.70;99.90;;;;;;4975014;28;20043;-66
2024/02/08 13:30:00;;;;;;;1.65;0.85;;;11.70;99.90;;;;;;4957929;28;20482;-66
2024/02/08 13:32:30;;;;;;;6.30;1.00;;;11.80;99.90;;;;;;4972388;28;20042;-66
2024/02/08 13:34:58;;;;;;;3.78;1.30;;;11.90;99.90;;;;;;4974170;28;20027;-66
2024/02/08 13:37:26;;;;;;;16.42;1.67;;;11.90;99.90;;;;;;4973061;28;20033;-66
2024/02/08 13:40:03;;;;;;;7.40;2.17;;;11.90;99.90;;;;;;4974681;28;20034;-65
2024/02/08 13:42:32;;;;;;;3.78;0.65;;;11.90;99.90;;;;;;4988018;28;20094;-66
2024/02/08 13:45:02;;;;;;;1.73;0.75;;;12.00;99.90;;;;;;4966468;28;20534;-65
2024/02/08 13:47:29;;;;;;;4.57;1.17;;;12.00;99.90;;;;;;4974501;28;20026;-65
2024/02/08 13:49:57;;;;;;;5.57;1.10;;;12.00;99.90;;;;;;5001892;23;20044;-67
2024/02/08 13:52:26;;;;;;;1.58;0.40;;;12.00;99.90;;;;;;5007712;28;20080;-66
2024/02/08 13:54:55;;;;;;;9.85;1.60;;;12.00;99.90;;;;;;4992091;28;20376;-66
2024/02/08 13:57:21;;;;;;;7.63;1.23;;;12.00;99.90;;;;;;4993574;28;20022;-66
2024/02/08 13:59:51;;;;;;;5.00;1.17;;;12.00;99.90;;;;;;4991679;28;20041;-72
2024/02/08 14:02:19;;;;;;;3.45;1.23;;;12.00;99.90;;;;;;4992304;28;20066;-61
2024/02/08 14:04:55;;;;;;;8.90;1.58;;;12.00;99.90;;;;;;4975501;28;20387;-58
2024/02/08 14:07:29;;;;;;;1.80;0.85;;;12.00;99.90;;;;;;4992413;28;20035;-60
2024/02/08 14:09:59;;;;;;;7.05;1.13;;;12.10;99.90;;;;;;4992863;28;20042;-57
2024/02/08 14:12:28;;;;;;;6.93;1.55;;;12.10;99.90;;;;;;4993603;28;20045;-66
2024/02/08 14:14:56;;;;;;;5.88;1.13;;;12.10;99.90;;;;;;4991194;28;20022;-66
2024/02/08 14:17:27;;;;;;;7.22;1.05;;;12.20;99.90;;;;;;4991728;28;20030;-69
2024/02/08 14:19:56;;;;;;;18.98;1.50;;;12.20;99.90;;;;;;4976869;28;20080;-70
2024/02/08 14:22:24;;;;;;;7.15;2.22;;;12.20;99.90;;;;;;4991107;28;20037;-67
2024/02/08 14:24:52;;;;;;;7.72;2.42;;;12.20;99.90;;;;;;4992133;28;20026;-67
2024/02/08 14:27:23;;;;;;;1.40;0.65;;;12.30;99.90;;;;;;4974523;28;20055;-67
2024/02/08 14:29:50;;;;;;;9.20;1.90;;;12.30;99.90;;;;;;4989595;28;20027;-67
2024/02/08 14:32:21;;;;;;;2.05;1.20;;;12.20;99.90;;;;;;4986672;28;20084;-67
2024/02/08 14:34:47;;;;;;;11.45;1.08;;;12.20;99.90;;;;;;4991459;28;20030;-66
2024/02/08 14:37:13;;;;;;;6.63;1.35;;;12.20;99.90;;;;;;4990569;28;20030;-68
2024/02/08 14:39:39;;;;;;;9.45;1.50;;;12.20;99.90;;;;;;4992410;28;20045;-66
2024/02/08 14:42:17;;;;;;;3.03;1.08;;;12.20;99.90;;;;;;4991968;28;20026;-66
2024/02/08 14:44:44;;;;;;;5.60;1.08;;;12.30;99.90;;;;;;4991995;28;20034;-66
2024/02/08 14:47:31;;;;;;;6.80;0.90;;;12.30;99.90;;;;;;4973838;28;20033;-66
2024/02/08 14:50:00;;;;;;;2.67;1.13;;;12.20;99.90;;;;;;4990975;28;20037;-66
2024/02/08 14:52:28;;;;;;;5.15;1.25;;;12.20;99.90;;;;;;4989893;28;20073;-66
2024/02/08 14:54:59;;;;;;;8.57;1.85;;;12.20;99.90;;;;;;4990340;28;20032;-66
2024/02/08 14:57:38;;;;;;;7.65;0.90;;;12.20;99.90;;;;;;4992502;28;20122;-66
2024/02/08 15:02:55;;;;;;;6.55;1.38;;;12.20;99.90;;;;;;4990191;28;20030;-66
2024/02/08 15:11:02;;;;;;;3.20;1.33;;;12.20;99.90;;;;;;4990823;28;20040;-66
2024/02/08 15:13:49;;;;;;;;;;;12.20;99.90;;;;;;4983501;28;20019;-66
2024/02/08 15:16:30;;;;;;;6.25;1.35;;;12.20;99.90;;;;;;4985244;28;19910;-66
2024/02/08 15:18:57;;;;;;;;;;;12.20;99.90;;;;;;4991358;28;20041;-66
2024/02/08 15:21:23;;;;;;;3.85;0.85;;;12.20;99.90;;;;;;4991869;28;19967;-66
2024/02/08 15:26:44;;;;;;;3.65;1.88;;;12.20;99.90;;;;;;4991576;28;20018;-66
2024/02/08 15:30:00;;;;;;;2.00;0.85;;;12.10;99.90;;;;;;4990814;28;20117;-66
2024/02/08 15:32:10;;;;;;;16.05;1.75;;;12.10;99.90;;;;;;4986878;28;20072;-66
2024/02/08 15:37:28;;;;;;;9.10;1.70;;;12.00;99.90;;;;;;4989806;28;20040;-67
2024/02/08 15:40:09;;;;;;;5.28;1.40;;;12.00;99.90;;;;;;4990261;28;20076;-68
2024/02/08 15:42:41;;;;;;;8.52;1.02;;;12.00;99.90;;;;;;4990675;28;20023;-68
2024/02/08 15:45:13;;;;;;;7.68;2.58;;;12.00;99.90;;;;;;4990083;28;20045;-67
2024/02/08 15:48:01;;;;;;;5.03;2.40;;;12.00;99.90;;;;;;5002868;28;20410;-66
2024/02/08 15:50:42;;;;;;;4.70;1.23;;;12.10;99.90;;;;;;4989820;28;20129;-70
2024/02/08 15:53:19;;;;;;;8.00;1.17;;;12.10;99.90;;;;;;4988722;28;20026;-69
2024/02/08 15:55:50;;;;;;;4.93;1.48;;;12.10;99.90;;;;;;4991326;28;20029;-69